sensor_id;sensor_type;location;lat;lon;timestamp;P1;durP1;ratioP1;P2;durP2;ratioP2
64467;SDS011;50853;46.836;16.820;2023-05-25T10:03:13;7.80;;;2.85;;
64467;SDS011;50853;46.836;16.820;2023-05-25T10:05:40;5.35;;;2.95;;
64467;SDS011;50853;46.836;16.820;2023-05-25T10:08:05;7.35;;;3.60;;
64467;SDS011;50853;46.836;16.820;2023-05-25T10:10:33;8.18;;;3.53;;
64467;SDS011;50853;46.836;16.820;2023-05-25T10:12:59;6.47;;;3.20;;
64467;SDS011;50853;46.836;16.820;2023-05-25T10:15:26;5.00;;;2.75;;
64467;SDS011;50853;46.836;16.820;2023-05-25T10:17:52;8.68;;;2.95;;
64467;SDS011;50853;46.836;16.820;2023-05-25T10:20:22;12.10;;;3.13;;
64467;SDS011;50853;46.836;16.820;2023-05-25T10:25:37;13.38;;;3.20;;
64467;SDS011;50853;46.836;16.820;2023-05-25T10:28:16;9.02;;;3.05;;
64467;SDS011;50853;46.836;16.820;2023-05-25T10:30:50;7.30;;;3.30;;
64467;SDS011;50853;46.836;16.820;2023-05-25T10:33:17;13.40;;;3.33;;
64467;SDS011;50853;46.836;16.820;2023-05-25T10:35:45;7.93;;;3.03;;
64467;SDS011;50853;46.836;16.820;2023-05-25T10:38:13;12.98;;;3.53;;
64467;SDS011;50853;46.836;16.820;2023-05-25T10:40:39;4.78;;;2.97;;
64467;SDS011;50853;46.836;16.820;2023-05-25T10:43:05;7.78;;;3.17;;
64467;SDS011;50853;46.836;16.820;2023-05-25T10:45:32;7.40;;;3.00;;
64467;SDS011;50853;46.836;16.820;2023-05-25T10:47:58;5.97;;;3.22;;
64467;SDS011;50853;46.836;16.820;2023-05-25T10:50:24;7.65;;;3.47;;
64467;SDS011;50853;46.836;16.820;2023-05-25T10:56:01;5.63;;;3.33;;
64467;SDS011;50853;46.836;16.820;2023-05-25T10:58:30;9.18;;;3.10;;
64467;SDS011;50853;46.836;16.820;2023-05-25T11:00:57;8.90;;;3.40;;
64467;SDS011;50853;46.836;16.820;2023-05-25T12:10:25;7.85;;;4.18;;
64467;SDS011;50853;46.836;16.820;2023-05-25T12:12:51;7.60;;;3.88;;
64467;SDS011;50853;46.836;16.820;2023-05-25T12:15:22;12.68;;;4.53;;
64467;SDS011;50853;46.836;16.820;2023-05-25T12:17:49;10.40;;;4.40;;
64467;SDS011;50853;46.836;16.820;2023-05-25T12:20:17;7.18;;;3.83;;
64467;SDS011;50853;46.836;16.820;2023-05-25T12:31:22;15.00;;;3.80;;
64467;SDS011;50853;46.836;16.820;2023-05-25T12:34:05;8.70;;;3.70;;
64467;SDS011;50853;46.836;16.820;2023-05-25T17:03:56;15.27;;;4.93;;
64467;SDS011;50853;46.836;16.820;2023-05-25T17:06:22;11.00;;;4.07;;
64467;SDS011;50853;46.836;16.820;2023-05-25T17:08:48;11.03;;;4.97;;
64467;SDS011;50853;46.836;16.820;2023-05-25T17:11:14;16.48;;;4.82;;
64467;SDS011;50853;46.836;16.820;2023-05-25T17:13:40;14.53;;;5.17;;
64467;SDS011;50853;46.836;16.820;2023-05-25T17:16:06;20.10;;;6.37;;
64467;SDS011;50853;46.836;16.820;2023-05-25T17:18:32;21.27;;;7.10;;
64467;SDS011;50853;46.836;16.820;2023-05-25T17:20:57;16.23;;;5.60;;
64467;SDS011;50853;46.836;16.820;2023-05-25T17:23:23;23.07;;;5.60;;
64467;SDS011;50853;46.836;16.820;2023-05-25T17:25:49;16.07;;;5.90;;
64467;SDS011;50853;46.836;16.820;2023-05-25T17:28:15;13.77;;;5.17;;
64467;SDS011;50853;46.836;16.820;2023-05-25T17:30:40;16.10;;;4.77;;
64467;SDS011;50853;46.836;16.820;2023-05-25T17:33:06;14.60;;;4.77;;
64467;SDS011;50853;46.836;16.820;2023-05-25T17:35:32;17.73;;;5.23;;
64467;SDS011;50853;46.836;16.820;2023-05-25T17:37:58;13.37;;;4.57;;
64467;SDS011;50853;46.836;16.820;2023-05-25T17:40:24;12.27;;;4.43;;
64467;SDS011;50853;46.836;16.820;2023-05-25T17:42:50;16.33;;;4.57;;
